createdAt,value
2022-10-11T00:01:24.224Z,4.53
2022-10-11T00:03:50.948Z,5.70
2022-10-11T00:06:17.627Z,5.68
2022-10-11T00:08:44.294Z,5.28
2022-10-11T00:11:11.506Z,5.90
2022-10-11T00:13:38.242Z,5.35
2022-10-11T00:16:11.814Z,6.28
2022-10-11T00:18:39.480Z,6.07
2022-10-11T00:21:09.268Z,7.70
2022-10-11T00:23:36.363Z,7.88
2022-10-11T00:26:05.801Z,6.60
2022-10-11T00:28:33.118Z,8.18
2022-10-11T00:31:00.071Z,7.82
2022-10-11T00:33:26.812Z,7.78
2022-10-11T00:35:53.499Z,8.27
2022-10-11T00:38:20.309Z,8.35
2022-10-11T00:40:47.057Z,7.35
2022-10-11T00:43:19.534Z,8.50
2022-10-11T00:45:58.424Z,9.70
2022-10-11T00:48:29.593Z,10.23
2022-10-11T00:50:59.083Z,8.32
2022-10-11T00:53:26.471Z,9.63
2022-10-11T00:55:59.335Z,9.05
2022-10-11T00:58:26.691Z,9.00
2022-10-11T01:00:54.215Z,9.23
2022-10-11T01:03:21.833Z,9.23
2022-10-11T01:05:48.803Z,12.77
2022-10-11T01:08:15.534Z,14.00
2022-10-11T01:10:42.231Z,14.43
2022-10-11T01:13:44.211Z,13.55
2022-10-11T01:16:19.740Z,17.08
2022-10-11T01:19:12.384Z,15.88
2022-10-11T01:21:53.417Z,16.90
2022-10-11T01:24:38.719Z,16.95
2022-10-11T01:27:41.981Z,16.88
2022-10-11T01:30:29.073Z,16.65
2022-10-11T01:33:21.240Z,15.60
2022-10-11T01:36:04.179Z,18.70
2022-10-11T01:38:47.109Z,17.70
2022-10-11T01:41:28.739Z,16.80
2022-10-11T01:44:00.513Z,17.48
2022-10-11T01:46:28.731Z,16.35
2022-10-11T01:48:57.961Z,16.35
2022-10-11T01:51:33.378Z,17.15
2022-10-11T01:54:12.738Z,19.02
2022-10-11T01:57:00.451Z,18.40
2022-10-11T01:59:39.074Z,16.02
2022-10-11T02:02:37.011Z,16.27
2022-10-11T02:05:09.460Z,17.98
2022-10-11T02:07:51.735Z,17.08
2022-10-11T02:10:27.800Z,18.73
2022-10-11T02:13:00.670Z,18.20
2022-10-11T02:15:29.160Z,20.90
2022-10-11T02:17:57.927Z,20.83
2022-10-11T02:20:26.713Z,22.73
2022-10-11T02:22:58.863Z,21.33
2022-10-11T02:25:27.361Z,22.10
2022-10-11T02:27:56.746Z,22.27
2022-10-11T02:30:23.575Z,19.75
2022-10-11T02:32:51.843Z,19.77
2022-10-11T02:35:19.492Z,21.40
2022-10-11T02:37:53.861Z,18.70
2022-10-11T02:40:27.766Z,21.63
2022-10-11T02:43:12.535Z,23.23
2022-10-11T02:45:45.072Z,21.75
2022-10-11T02:48:12.401Z,22.25
2022-10-11T02:50:40.306Z,23.08
2022-10-11T02:53:07.695Z,22.48
2022-10-11T02:55:34.944Z,23.65
2022-10-11T02:58:01.900Z,22.73
2022-10-11T03:00:28.793Z,20.55
2022-10-11T03:02:55.590Z,22.02
2022-10-11T03:05:22.241Z,21.08
2022-10-11T03:07:48.900Z,19.80
2022-10-11T03:10:15.642Z,20.15
2022-10-11T03:12:42.818Z,20.00
2022-10-11T03:15:09.955Z,21.55
2022-10-11T03:17:37.431Z,20.95
2022-10-11T03:20:05.940Z,21.15
2022-10-11T03:22:32.614Z,22.80
2022-10-11T03:25:03.635Z,20.25
2022-10-11T03:27:31.391Z,20.63
2022-10-11T03:29:58.154Z,20.70
2022-10-11T03:32:25.184Z,20.55
2022-10-11T03:34:51.889Z,22.67
2022-10-11T03:37:18.881Z,22.02
2022-10-11T03:39:45.879Z,21.63
2022-10-11T03:42:13.470Z,22.85
2022-10-11T03:44:41.606Z,21.13
2022-10-11T03:47:08.904Z,20.10
2022-10-11T03:49:38.828Z,21.23
2022-10-11T03:52:09.454Z,20.60
2022-10-11T03:54:36.234Z,20.08
2022-10-11T03:57:03.332Z,20.75
2022-10-11T03:59:30.078Z,19.95
2022-10-11T04:01:57.148Z,18.55
2022-10-11T04:04:24.077Z,18.75
2022-10-11T04:06:50.768Z,21.48
2022-10-11T04:09:17.591Z,20.48
2022-10-11T04:11:44.271Z,18.58
2022-10-11T04:14:11.044Z,19.80
2022-10-11T04:16:38.740Z,19.02
2022-10-11T04:19:05.925Z,18.50
2022-10-11T04:21:32.909Z,18.70
2022-10-11T04:23:59.833Z,17.98
2022-10-11T04:26:26.954Z,18.95
2022-10-11T04:28:53.742Z,17.75
2022-10-11T04:31:20.474Z,17.95
2022-10-11T04:33:47.449Z,19.10
2022-10-11T04:36:14.189Z,16.30
2022-10-11T04:38:40.917Z,16.75
2022-10-11T04:41:13.688Z,16.70
2022-10-11T04:43:40.396Z,17.35
2022-10-11T04:46:08.087Z,18.15
2022-10-11T04:48:35.072Z,18.25
2022-10-11T04:51:01.787Z,18.77
2022-10-11T04:53:28.606Z,19.33
2022-10-11T04:56:06.502Z,20.02
2022-10-11T04:58:34.942Z,18.77
2022-10-11T05:01:01.696Z,19.85
2022-10-11T05:03:28.410Z,19.55
2022-10-11T05:05:55.142Z,21.20
2022-10-11T05:08:25.075Z,20.30
2022-10-11T05:10:56.343Z,20.10
2022-10-11T05:13:23.186Z,20.10
2022-10-11T05:15:50.017Z,20.23
2022-10-11T05:18:16.863Z,20.10
2022-10-11T05:20:43.596Z,20.58
2022-10-11T05:23:10.286Z,20.83
2022-10-11T05:25:37.100Z,19.30
2022-10-11T05:28:04.115Z,19.30
2022-10-11T05:30:30.809Z,22.25
2022-10-11T05:32:57.501Z,20.60
2022-10-11T05:35:24.385Z,19.63
2022-10-11T05:37:51.127Z,18.65
2022-10-11T05:40:17.953Z,19.38
2022-10-11T05:42:44.729Z,21.80
2022-10-11T05:45:11.613Z,21.23
2022-10-11T05:47:38.356Z,21.67
2022-10-11T05:50:05.631Z,20.27
2022-10-11T05:52:32.304Z,22.33
2022-10-11T05:54:59.044Z,26.52
2022-10-11T05:57:25.772Z,25.05
2022-10-11T05:59:52.513Z,24.00
2022-10-11T06:02:19.321Z,25.77
2022-10-11T06:04:46.068Z,30.67
2022-10-11T06:07:12.743Z,24.45
2022-10-11T06:09:39.718Z,25.42
2022-10-11T06:12:06.629Z,22.33
2022-10-11T06:14:33.379Z,22.92
2022-10-11T06:17:00.052Z,24.08
2022-10-11T06:19:26.725Z,24.63
2022-10-11T06:21:53.473Z,29.35
2022-10-11T06:24:20.235Z,27.85
2022-10-11T06:26:49.059Z,25.95
2022-10-11T06:29:15.769Z,25.55
2022-10-11T06:31:42.489Z,26.63
2022-10-11T06:34:09.482Z,23.85
2022-10-11T06:36:36.395Z,29.08
2022-10-11T06:39:03.236Z,25.85
2022-10-11T06:41:30.642Z,30.27
2022-10-11T06:43:57.837Z,29.70
2022-10-11T06:46:26.577Z,24.42
2022-10-11T06:48:54.013Z,26.92
2022-10-11T06:51:21.978Z,35.65
2022-10-11T06:53:50.428Z,29.33
2022-10-11T06:56:17.180Z,26.70
2022-10-11T06:58:43.969Z,37.25
2022-10-11T07:01:13.910Z,26.83
2022-10-11T07:03:40.685Z,30.70
2022-10-11T07:06:12.740Z,24.65
2022-10-11T07:08:39.648Z,29.23
2022-10-11T07:11:08.956Z,24.08
2022-10-11T07:13:36.043Z,25.15
2022-10-11T07:16:04.825Z,27.58
2022-10-11T07:18:32.192Z,26.98
2022-10-11T07:21:02.044Z,32.70
2022-10-11T07:23:28.717Z,31.48
2022-10-11T07:25:55.591Z,30.30
2022-10-11T07:28:23.348Z,32.85
2022-10-11T07:30:50.674Z,36.75
2022-10-11T07:33:17.657Z,35.50
2022-10-11T07:35:48.214Z,36.25
2022-10-11T07:38:15.738Z,33.15
2022-10-11T07:40:44.441Z,34.88
2022-10-11T07:43:12.298Z,37.88
2022-10-11T07:45:40.626Z,24.92
2022-10-11T07:48:07.374Z,25.88
2022-10-11T07:50:34.805Z,34.35
2022-10-11T07:53:01.479Z,34.85
2022-10-11T07:55:29.875Z,33.53
2022-10-11T07:57:57.112Z,35.08
2022-10-11T08:00:24.473Z,32.60
2022-10-11T08:02:51.168Z,42.97
2022-10-11T08:05:17.954Z,34.35
2022-10-11T08:07:44.775Z,27.73
2022-10-11T08:10:11.580Z,26.20
2022-10-11T08:12:38.788Z,35.55
2022-10-11T08:15:05.934Z,39.10
2022-10-11T08:17:32.616Z,29.20
2022-10-11T08:19:59.508Z,45.47
2022-10-11T08:22:26.267Z,25.92
2022-10-11T08:24:52.947Z,30.10
2022-10-11T08:27:19.870Z,24.20
2022-10-11T08:29:46.525Z,29.92
2022-10-11T08:32:13.260Z,33.95
2022-10-11T08:34:39.981Z,39.90
2022-10-11T08:37:06.741Z,38.67
2022-10-11T08:39:33.484Z,49.22
2022-10-11T08:42:05.907Z,62.47
2022-10-11T08:45:05.592Z,54.90
2022-10-11T08:47:32.515Z,38.28
2022-10-11T08:49:59.916Z,41.75
2022-10-11T08:52:34.956Z,50.10
2022-10-11T08:55:07.973Z,48.88
2022-10-11T08:57:37.226Z,41.28
2022-10-11T09:00:13.962Z,40.03
2022-10-11T09:03:07.616Z,45.95
2022-10-11T09:05:51.035Z,39.35
2022-10-11T09:08:33.497Z,27.67
2022-10-11T09:11:15.283Z,34.95
2022-10-11T09:14:02.433Z,45.00
2022-10-11T09:16:55.763Z,37.58
2022-10-11T09:19:40.581Z,43.05
2022-10-11T09:22:21.395Z,40.38
2022-10-11T09:25:26.453Z,33.75
2022-10-11T09:28:18.922Z,47.50
2022-10-11T09:30:49.089Z,23.77
2022-10-11T09:33:21.487Z,44.78
2022-10-11T09:35:50.477Z,33.97
2022-10-11T09:38:38.963Z,29.08
2022-10-11T09:41:17.480Z,31.55
2022-10-11T09:43:48.591Z,28.45
2022-10-11T09:46:21.400Z,31.70
2022-10-11T09:48:48.358Z,28.08
2022-10-11T09:51:18.236Z,20.02
2022-10-11T09:54:00.144Z,19.35
2022-10-11T09:56:29.875Z,19.58
2022-10-11T09:59:31.682Z,21.67
2022-10-11T10:02:14.200Z,28.75
2022-10-11T10:05:01.777Z,26.20
2022-10-11T10:07:30.530Z,20.13
2022-10-11T10:09:57.588Z,22.38
2022-10-11T10:12:29.519Z,18.17
2022-10-11T10:15:07.975Z,17.00
2022-10-11T10:17:35.935Z,17.10
2022-10-11T10:20:05.544Z,20.02
2022-10-11T10:22:34.433Z,17.67
2022-10-11T10:25:03.337Z,16.98
2022-10-11T10:27:30.752Z,17.58
2022-10-11T10:30:09.872Z,18.60
2022-10-11T10:33:01.426Z,16.63
2022-10-11T10:35:42.597Z,15.82
2022-10-11T10:38:32.566Z,15.95
2022-10-11T10:41:02.457Z,19.48
2022-10-11T10:43:34.589Z,17.63
2022-10-11T10:46:10.170Z,17.13
2022-10-11T10:52:49.677Z,17.33
2022-10-11T10:55:26.689Z,17.92
2022-10-11T10:58:09.553Z,17.65
2022-10-11T11:00:46.283Z,18.05
2022-10-11T11:03:26.331Z,17.52
2022-10-11T11:06:06.560Z,19.92
2022-10-11T11:08:56.166Z,18.55
2022-10-11T11:11:32.238Z,19.02
2022-10-11T11:14:09.177Z,20.02
2022-10-11T11:16:38.257Z,19.90
2022-10-11T11:19:19.767Z,18.70
2022-10-11T11:21:54.911Z,18.42
2022-10-11T11:24:47.232Z,18.67
2022-10-11T11:27:42.085Z,17.38
2022-10-11T11:30:17.337Z,16.50
2022-10-11T11:33:06.420Z,17.60
2022-10-11T11:35:53.858Z,18.27
2022-10-11T11:38:43.729Z,17.98
2022-10-11T11:41:33.721Z,17.80
2022-10-11T11:44:34.568Z,17.67
2022-10-11T11:47:11.172Z,17.80
2022-10-11T11:52:17.729Z,17.67
2022-10-11T11:54:49.351Z,19.10
2022-10-11T11:57:41.583Z,16.35
2022-10-11T12:00:19.303Z,15.00
2022-10-11T12:02:51.902Z,14.98
2022-10-11T12:05:22.376Z,15.13
2022-10-11T12:07:54.361Z,15.45
2022-10-11T12:10:31.866Z,15.90
2022-10-11T12:13:07.077Z,17.00
2022-10-11T12:15:34.531Z,17.05
2022-10-11T12:18:15.491Z,16.48
2022-10-11T12:20:43.425Z,17.45
2022-10-11T12:23:28.226Z,17.02
2022-10-11T12:26:29.165Z,19.50
2022-10-11T12:29:28.505Z,18.23
2022-10-11T12:31:58.855Z,16.95
2022-10-11T12:34:43.148Z,17.27
2022-10-11T12:37:22.385Z,16.17
2022-10-11T12:39:59.670Z,15.63
2022-10-11T12:42:27.794Z,16.05
2022-10-11T12:45:31.150Z,14.63
2022-10-11T12:48:19.137Z,15.52
2022-10-11T12:51:16.647Z,14.80
2022-10-11T12:54:36.835Z,13.90
2022-10-11T12:57:30.219Z,13.15
2022-10-11T13:00:12.004Z,13.32
2022-10-11T13:02:42.656Z,13.40
2022-10-11T13:05:20.006Z,13.57
2022-10-11T13:07:46.938Z,14.93
2022-10-11T13:10:22.085Z,13.50
2022-10-11T13:12:49.351Z,13.68
2022-10-11T13:15:18.753Z,13.93
2022-10-11T13:17:45.492Z,14.25
2022-10-11T13:20:26.130Z,14.00
2022-10-11T13:22:54.760Z,13.48
2022-10-11T13:25:25.028Z,13.38
2022-10-11T13:27:53.730Z,12.73
2022-10-11T13:30:31.756Z,12.50
2022-10-11T13:33:00.178Z,12.73
2022-10-11T13:35:34.169Z,13.10
2022-10-11T13:38:01.290Z,11.73
2022-10-11T13:40:28.867Z,11.73
2022-10-11T13:42:55.896Z,12.02
2022-10-11T13:45:27.584Z,12.07
2022-10-11T13:47:55.093Z,11.82
2022-10-11T13:50:30.308Z,11.27
2022-10-11T13:53:04.744Z,12.35
2022-10-11T13:55:41.939Z,12.07
2022-10-11T13:58:36.077Z,11.52
2022-10-11T14:01:05.826Z,11.95
2022-10-11T14:03:59.313Z,12.00
2022-10-11T14:06:58.325Z,11.93
2022-10-11T14:09:34.880Z,11.23
2022-10-11T14:12:39.604Z,10.48
2022-10-11T14:15:33.454Z,10.60
2022-10-11T14:18:01.224Z,10.75
2022-10-11T14:20:36.148Z,9.93
2022-10-11T14:23:02.859Z,10.80
2022-10-11T14:25:29.781Z,10.02
2022-10-11T14:27:56.729Z,10.82
2022-10-11T14:30:26.694Z,10.70
2022-10-11T14:32:56.942Z,10.27
2022-10-11T14:35:29.747Z,12.02
2022-10-11T14:37:56.557Z,12.82
2022-10-11T14:40:26.233Z,10.80
2022-10-11T14:42:53.276Z,11.70
2022-10-11T14:45:21.444Z,12.35
2022-10-11T14:47:48.657Z,12.60
2022-10-11T14:50:39.202Z,11.43
2022-10-11T14:53:07.528Z,10.70
2022-10-11T14:55:38.435Z,10.25
2022-10-11T14:58:09.500Z,10.88
2022-10-11T15:00:36.974Z,10.02
2022-10-11T15:03:07.025Z,10.43
2022-10-11T15:05:34.515Z,10.18
2022-10-11T15:08:02.427Z,11.02
2022-10-11T15:10:34.687Z,10.38
2022-10-11T15:13:01.691Z,9.63
2022-10-11T15:15:32.691Z,10.52
2022-10-11T15:18:00.035Z,10.27
2022-10-11T15:20:33.290Z,11.35
2022-10-11T15:23:00.735Z,10.68
2022-10-11T15:25:29.018Z,9.63
2022-10-11T15:27:56.301Z,10.75
2022-10-11T15:30:26.579Z,10.60
2022-10-11T15:32:53.672Z,10.63
2022-10-11T15:35:22.701Z,10.43
2022-10-11T15:37:52.985Z,10.32
2022-10-11T15:40:23.742Z,10.95
2022-10-11T15:42:52.038Z,10.68
2022-10-11T15:45:20.001Z,10.93
2022-10-11T15:47:47.492Z,10.43
2022-10-11T15:50:35.002Z,10.30
2022-10-11T15:53:07.512Z,9.77
2022-10-11T15:55:36.007Z,10.75
2022-10-11T15:58:02.726Z,10.93
2022-10-11T16:00:30.062Z,10.82
2022-10-11T16:02:58.489Z,11.45
2022-10-11T16:05:42.078Z,11.82
2022-10-11T16:08:14.889Z,13.02
2022-10-11T16:10:41.944Z,10.70
2022-10-11T16:13:09.393Z,11.40
2022-10-11T16:15:38.879Z,11.38
2022-10-11T16:18:06.768Z,11.20
2022-10-11T16:20:33.650Z,10.38
2022-10-11T16:23:00.375Z,11.27
2022-10-11T16:25:27.082Z,10.60
2022-10-11T16:27:53.836Z,10.52
2022-10-11T16:30:20.866Z,10.18
2022-10-11T16:32:47.749Z,11.85
2022-10-11T16:35:16.199Z,12.27
2022-10-11T16:37:43.165Z,12.32
2022-10-11T16:40:11.312Z,12.63
2022-10-11T16:42:38.936Z,12.02
2022-10-11T16:45:06.486Z,12.40
2022-10-11T16:47:33.172Z,11.43
2022-10-11T16:50:05.459Z,12.77
2022-10-11T16:52:35.039Z,12.13
2022-10-11T16:55:01.987Z,10.70
2022-10-11T16:57:28.757Z,11.35
2022-10-11T16:59:56.087Z,11.23
2022-10-11T17:02:29.885Z,11.50
2022-10-11T17:04:58.905Z,13.35
2022-10-11T17:07:25.744Z,17.10
2022-10-11T17:09:52.635Z,14.23
2022-10-11T17:12:22.023Z,13.65
2022-10-11T17:14:49.715Z,14.68
2022-10-11T17:17:17.445Z,11.95
2022-10-11T17:19:45.507Z,11.20
2022-10-11T17:22:14.638Z,12.38
2022-10-11T17:24:41.397Z,17.73
2022-10-11T17:27:08.697Z,13.38
2022-10-11T17:29:35.780Z,12.75
2022-10-11T17:32:02.692Z,12.18
2022-10-11T17:34:29.523Z,14.93
2022-10-11T17:36:56.239Z,15.43
2022-10-11T17:39:23.979Z,15.95
2022-10-11T17:41:51.312Z,13.38
2022-10-11T17:44:18.789Z,15.75
2022-10-11T17:46:46.092Z,20.55
2022-10-11T17:49:13.186Z,25.83
2022-10-11T17:51:40.698Z,19.92
2022-10-11T17:54:12.271Z,16.48
2022-10-11T17:56:43.011Z,14.05
2022-10-11T17:59:16.683Z,20.05
2022-10-11T18:01:43.396Z,18.75
2022-10-11T18:04:16.619Z,13.90
2022-10-11T18:06:45.034Z,13.57
2022-10-11T18:09:12.983Z,13.95
2022-10-11T18:11:39.728Z,14.77
2022-10-11T18:14:06.516Z,12.13
2022-10-11T18:16:34.053Z,11.80
2022-10-11T18:19:03.277Z,11.10
2022-10-11T18:21:34.530Z,11.23
2022-10-11T18:24:07.786Z,12.75
2022-10-11T18:26:34.575Z,14.98
2022-10-11T18:29:01.464Z,13.85
2022-10-11T18:31:30.484Z,15.07
2022-10-11T18:33:57.428Z,15.30
2022-10-11T18:36:27.241Z,18.48
2022-10-11T18:38:56.342Z,19.83
2022-10-11T18:41:24.563Z,19.30
2022-10-11T18:43:53.192Z,18.67
2022-10-11T18:46:20.666Z,18.05
2022-10-11T18:48:49.764Z,18.30
2022-10-11T18:51:19.137Z,17.95
2022-10-11T18:53:46.329Z,15.68
2022-10-11T18:56:13.871Z,15.20
2022-10-11T18:58:41.294Z,14.05
2022-10-11T19:01:12.289Z,14.55
2022-10-11T19:03:39.314Z,13.05
2022-10-11T19:06:08.888Z,14.65
2022-10-11T19:08:35.919Z,14.55
2022-10-11T19:11:10.369Z,14.07
2022-10-11T19:13:37.179Z,14.82
2022-10-11T19:16:14.851Z,14.13
2022-10-11T19:18:44.401Z,14.45
2022-10-11T19:21:12.739Z,14.88
2022-10-11T19:23:41.874Z,15.02
2022-10-11T19:26:22.067Z,14.35
2022-10-11T19:28:49.106Z,15.90
2022-10-11T19:31:16.998Z,15.15
2022-10-11T19:33:45.325Z,14.55
2022-10-11T19:36:16.326Z,14.43
2022-10-11T19:38:45.734Z,15.27
2022-10-11T19:41:13.131Z,14.07
2022-10-11T19:43:39.888Z,14.93
2022-10-11T19:46:13.197Z,15.40
2022-10-11T19:48:40.147Z,16.00
2022-10-11T19:51:09.929Z,15.57
2022-10-11T19:53:36.722Z,14.60
2022-10-11T19:56:09.305Z,16.35
2022-10-11T19:58:36.342Z,16.08
2022-10-11T20:01:06.146Z,16.40
2022-10-11T20:03:33.721Z,16.00
2022-10-11T20:06:01.681Z,16.08
2022-10-11T20:08:31.414Z,15.75
2022-10-11T20:11:03.661Z,14.90
2022-10-11T20:13:34.836Z,15.73
2022-10-11T20:16:11.048Z,17.27
2022-10-11T20:18:38.170Z,16.13
2022-10-11T20:21:19.802Z,16.58
2022-10-11T20:23:47.581Z,16.75
2022-10-11T20:26:16.927Z,16.05
2022-10-11T20:28:44.043Z,15.90
2022-10-11T20:31:22.246Z,17.20
2022-10-11T20:33:49.577Z,17.17
2022-10-11T20:36:18.684Z,16.98
2022-10-11T20:38:47.501Z,16.15
2022-10-11T20:41:23.449Z,16.45
2022-10-11T20:43:52.789Z,15.93
2022-10-11T20:46:27.976Z,15.45
2022-10-11T20:49:01.358Z,16.30
2022-10-11T20:51:29.781Z,16.38
2022-10-11T20:53:56.740Z,22.42
2022-10-11T20:56:23.907Z,18.70
2022-10-11T20:58:55.038Z,24.13
2022-10-11T21:01:26.686Z,23.13
2022-10-11T21:03:54.124Z,26.15
2022-10-11T21:06:20.807Z,20.58
2022-10-11T21:08:47.519Z,18.48
2022-10-11T21:11:14.710Z,18.00
2022-10-11T21:13:41.491Z,17.63
2022-10-11T21:16:12.345Z,17.85
2022-10-11T21:18:39.547Z,17.35
2022-10-11T21:21:13.994Z,17.00
2022-10-11T21:23:41.156Z,17.23
2022-10-11T21:26:13.240Z,17.42
2022-10-11T21:28:41.089Z,18.27
2022-10-11T21:31:13.626Z,17.48
2022-10-11T21:33:41.240Z,17.88
2022-10-11T21:36:13.316Z,17.58
2022-10-11T21:38:40.351Z,17.10
2022-10-11T21:41:15.084Z,18.02
2022-10-11T21:43:41.873Z,17.65
2022-10-11T21:46:14.227Z,18.73
2022-10-11T21:48:40.919Z,17.95
2022-10-11T21:53:42.730Z,16.83
2022-10-11T21:56:09.454Z,17.05
2022-10-11T21:58:36.227Z,18.45
2022-10-11T22:01:03.278Z,18.42
2022-10-11T22:03:30.024Z,17.63
2022-10-11T22:05:56.795Z,16.85
2022-10-11T22:08:23.738Z,18.05
2022-10-11T22:10:56.164Z,16.55
2022-10-11T22:13:23.963Z,16.83
2022-10-11T22:15:50.683Z,17.35
2022-10-11T22:18:17.390Z,19.45
2022-10-11T22:20:44.152Z,18.60
2022-10-11T22:23:11.600Z,17.27
2022-10-11T22:25:38.998Z,18.48
2022-10-11T22:28:06.497Z,17.33
2022-10-11T22:30:33.563Z,18.83
2022-10-11T22:33:00.586Z,17.55
2022-10-11T22:35:27.554Z,18.52
2022-10-11T22:37:54.243Z,18.40
2022-10-11T22:40:21.026Z,18.70
2022-10-11T22:42:47.826Z,18.27
2022-10-11T22:45:14.995Z,19.63
2022-10-11T22:47:41.717Z,18.33
2022-10-11T22:50:08.985Z,18.48
2022-10-11T22:52:35.777Z,20.80
2022-10-11T22:55:02.457Z,17.63
2022-10-11T22:57:29.595Z,18.77
2022-10-11T22:59:56.333Z,19.63
2022-10-11T23:02:23.025Z,18.48
2022-10-11T23:04:49.830Z,20.27
2022-10-11T23:07:16.483Z,21.30
2022-10-11T23:09:43.127Z,20.42
2022-10-11T23:12:09.891Z,20.67
2022-10-11T23:14:36.561Z,21.02
2022-10-11T23:17:03.223Z,21.02
2022-10-11T23:19:29.881Z,20.50
2022-10-11T23:21:56.542Z,20.83
2022-10-11T23:24:23.359Z,21.60
2022-10-11T23:26:50.003Z,20.92
2022-10-11T23:29:16.777Z,22.10
2022-10-11T23:31:43.452Z,21.10
2022-10-11T23:34:10.423Z,20.88
2022-10-11T23:36:37.136Z,20.17
2022-10-11T23:39:03.917Z,19.85
2022-10-11T23:41:30.801Z,20.00
2022-10-11T23:43:58.245Z,18.70
2022-10-11T23:46:25.008Z,20.58
2022-10-11T23:48:51.677Z,19.73
2022-10-11T23:51:18.525Z,20.65
2022-10-11T23:53:45.231Z,19.75
2022-10-11T23:56:12.027Z,20.83
2022-10-11T23:58:39.025Z,20.27
